This site, now in its 22nd season, is a labour of love and fun from one of Ottawa's most avid time trialists and number crunchers. It adheres to and is permitted by the laws of Canada, promotes the objectives of every bicycle club whose results are shown, and is donated free of charge by myself for your enjoyment and usage. If you would like results from series you ride in to be shown here, give me (celia@drmath.ca) a shout!
NOTE that this site had to be quickly moved to a new server with a new version of Perl. Unfortunately the way of interacting with the web form has changed, so I'll have to do some reprogramming to get the buttons and search boxes working. Meanwhile the links work fine and you can always add query specifications into the URL! :-)


Index Page
ATT OTT WTT AATT CFCTT VVVTT
Help resultformat:
Case-sensitive

OBC Open TT Series - 2012-May-17 - 15km (Rockliffe Pkwy) (EvtFactor = 0.8805)

Ottawa Weather (18:00): Mainly Sunny. Temperature: 17°C, Humidity: 35%, Dew Point: 1°C, Wind: NW 19 gust 28km/h, Pressure: 102.0kPa, Visibility: 10km.
Ottawa Weather (19:00): Partly Cloudy. Temperature: 16°C, Humidity: 36%, Dew Point: 1°C, Wind: NW 14km/h, Pressure: 102.0kPa, Visibility: 10km.
Ottawa Weather (20:00): Mainly Sunny. Temperature: 14°C, Humidity: 41%, Dew Point: 1°C, Wind: WNW 10km/h, Pressure: 102.0kPa, Visibility: 10km.

There were some fantastic rides tonight, despite the high air pressure of 102kPa) and the NW winds, which surely were higher than measured by Environment Canada at the Ottawa Airport! Casey Roth took six seconds off of his first attempt on this course last week to finish first in 19:31. Michael Nash was second, 10 seconds back with 19:41. The best ride of the evening, though, goes to the third place finisher, Derek Gee, in his first year as a Cadet. Derek will turn 15 in August, and his time of 20:03 tonight is the third best Cadet 15km result in my database, and its important to note that the only two faster rides were done by Alex Cataford (19:38) on 2009-Sep-10 and Andrew Lattimore (19:49) on 2007-Aug-23, both late in the season in their second year in the Cadet category. As an added bonus, Derek beat his speedy dad for the first time! In terms of the women, the first three all improved upon their previous database best. First place Kelly Knowles broke the 40km/h limit for the first time with her 22:23. Junior rider Ariane Bonhomme did 23:34, and Robyn Angeles (24:02) will almost certainly be sub-24 next time.

These results were posted on the OBC site circa 23:30 on 2012-May-17 and are available here for your added pleasure and analysis.

(Lest complaints about me just lazily sucking in the results surface, I wish to make it perfectly clear that I would gladly do the data entry, getting the results up within a few of hours of the event, as history shows that I did for the WTT series for the decade beginning in 1998, and for the OTT series from 1999-2002 and again in 2006. The OBC Board however, not only won't let me volunteer here, but strangely enough they actually expelled me from the OBC for donating this time trial web site to you !)




 
 

BESTS?
 
1 Roth, Casey  RWR 19:31 46.114 1/91 U30M 1/7 1.0154
2 Nash, Michael  OBC/RWR 19:41 45.724 2/91 U50M 1/18  
3 Gee, Derek  OBC 20:03 44.888 3/91 U17M 1/3  
4 Gee, Jon RWR 20:04 44.850 4/91 U60M 1/17  
5 Hawkes, Craig CYC 20:25 44.082 5/91 U40M 1/19  
6 Martel, Brad RWR 20:31 43.867 6/91 U50M 2/18  
7 Michel, Alexandre  TTC 20:32 43.831 7/91 U40M 2/19  
8 Boileau, Greg --- 20:38 43.619 8/91 U40M 3/19 1.1027
9 Richer, Antoine --- 20:41 43.513 9/91 U40M 4/19 1.0667
10 Proulx, Steve  CYC 20:52 43.131 10/91 U50M 3/18  
11 Gagnon, Alexandre  OBC 20:57 42.959 11/91 U30M 2/7 1.0120
12 Campbell, Colin  OBC 20:58 42.925 12/91 U60M 2/17 1.0808
13 Katz, Joel  OBC/RWR 21:02 42.789 13/91 U60M 3/17 1.0000
Orange, Robert RWR 21:02 42.789 13/91 U50M 4/18 1.0000
15 Budgell, Glen  OBC 21:07 42.620 15/91 U60M 4/17 1.0555
16 Di Silvestro, Matthew EUR 21:12 42.453 16/91 U40M 5/19 1.0310
17 Pellerin, Jean-Philippe OBC 21:15 42.353 17/91 U30M 3/7 1.1635
18 Diaz, Rodrigo  EUR 21:16 42.320 18/91 U40M 6/19 1.0142
19 Tregunno, Peter  OBC 21:22 42.122 19/91 U40M 7/19 1.1369
20 Zollinger, Martin RWR 21:35 41.699 20/91 U40M 8/19  
21 Mullington, Chris WQW 21:44 41.411 21/91 U60M 5/17 1.0000
22 Armstrong, Brian OBC 22:06 40.724 22/91 U50M 5/18 1.0228
23 Reid, Chris  RWR 22:09 40.632 23/91 U30M 4/7 1.1196
24 Zappe, Erich RWR 22:10 40.602 24/91 U60M 6/17 0.9978
25 Skafel, Paul CYC 22:14 40.480 25/91 U40M 9/19 1.0319
26 Brassard, David OCA 22:18 40.359 26/91 U40M 10/19  
27 Burge, Craig  CYC 22:20 40.299 27/91 U60M 7/17 1.0181
28 Knowles, Kelly  SRC 22:23 40.208 28/91 U50F 1/8 1.1621
29 Brown, Andrew TTC 22:26 40.119 29/91 U40M 11/19 1.1569
30 Moerman, Bram  OBC 22:32 39.941 30/91 U70M 1/4 1.0359
31 Posthuma, Hans  OBC 22:44 39.589 31/91 U60M 8/17 1.0401
32 Dorego, Jean-Louis OBC 22:45 39.560 32/91 U70M 2/4 1.0628
33 Byway, Connor  OBC 22:46 39.531 33/91 U17M 2/3 1.0132
34 Robitaille, Brian  OBC 22:52 39.359 34/91 U50M 6/18 0.9151
35 Forcese, Craig OBC 23:02 39.074 35/91 U50M 7/18 0.9957
36 Davis, Doug OBC 23:03 39.046 36/91 U50M 8/18 1.0396
37 Samborski, Mike OBC 23:05 38.989 37/91 U40M 12/19 1.0686
38 Blais, Bob --- 23:11 38.821 38/91 U60M 9/17 1.2844
39 Manjikian, Sevak OBC 23:19 38.599 39/91 U50M 9/18  
40 Chartrand, Pierre-Louis OBC 23:22 38.516 40/91 U50M 10/18 1.2643
41 Larson, Eric RWR 23:23 38.489 41/91 U50M 11/18 1.2566
42 Parkinson, Scott OBC 23:25 38.434 42/91 U50M 12/18  
43 Bonhomme, Ariane OBC 23:34 38.190 43/91 U19F 1/1 1.0695
44 Robinson, Shawn OBC 23:40 38.028 44/91 U30M 5/7  
45 Coudé, Martin --- 23:52 37.709 45/91 U30M 6/7 1.0126
46 Mroz, Geoff OBC 23:53 37.683 46/91 U40M 13/19 1.5489
47 Deschamps, Martin WQW 23:56 37.604 47/91 U40M 14/19 1.0705
48 Angeles, Robyn  IND 24:02 37.448 48/91 U50F 2/8 1.0104
49 Burge, Larry  OBC 24:11 37.216 49/91 U50M 13/18 1.0828
Nesdoly, Nina  --- 24:11 37.216 49/91 U30F 1/4  
51 Reid, George --- 24:15 37.113 51/91 U60M 10/17  
52 Desmarais-Sylvester, Julie --- 24:16 37.088 52/91 U60F 1/6  
53 Hicks, Bob  OBC 24:18 37.037 53/91 U70M 3/4 1.1263
54 Deavy, Carol  OBC 24:22 36.936 54/91 U50F 3/8 0.9959
55 Carrier, Damien --- 24:29 36.760 55/91 U50M 14/18  
56 Czaban, Christina  OBC 24:31 36.710 56/91 U30F 2/4 1.2182
57 Marleau, Dianne  OBC 24:57 36.072 57/91 U60F 2/6 1.1100
58 Kramer, Mark OBC 25:00 36.000 58/91 U40M 15/19 1.0843
59 Joinette, Vincent --- 25:02 35.952 59/91 U19M 1/1 0.9664
60 Hall, David  OBC 25:04 35.904 60/91 U60M 11/17 1.0861
61 Jones, Amanda --- 25:06 35.857 61/91 U40F 1/1 0.9492
62 Pavelich, John OBC 25:10 35.762 62/91 U60M 12/17 1.1676
63 Déry, Nicolas  OBC 25:14 35.667 63/91 U40M 16/19 1.0627
64 Champagne, Luc OBC 25:20 35.526 64/91 U60M 13/17  
65 Appotive, Eric OBC 25:21 35.503 65/91 U60M 14/17 1.2513
66 Ramirez, Rolando  OBC 25:25 35.410 66/91 U50M 15/18  
67 McGarry, Martin --- 25:39 35.088 67/91 U40M 17/19  
68 Balint, John OBC 25:42 35.019 68/91 U70M 4/4 0.9845
69 Scott, Sean OBC 25:44 34.974 69/91 U50M 16/18  
70 Coney, Ingrid  OBC 25:46 34.929 70/91 U60F 3/6  
71 Dore, Morley OBC 25:49 34.861 71/91 U80M 1/1 1.0058
72 Hauschildt, Gunter OBC 25:58 34.660 72/91 U50M 17/18 1.2471
73 King, Dustin OBC 26:35 33.856 73/91 U17M 3/3 1.2827
74 Dal-Cin, Mauro EUR 26:44 33.666 74/91 U60M 15/17 1.0747
75 Ferlatte, Kari  FC 27:07 33.190 75/91 U50F 4/8  
76 McInnis, Celia  ABC/CYF 27:09 33.149 76/91 U60F 4/6 0.9817
77 Easton, Glenn OBC 27:12 33.088 77/91 U60M 16/17 1.0372
78 Bean, Camille OBC 27:22 32.887 78/91 U30F 3/4 1.0521
79 Byway, Nia  OBC 27:36 32.609 79/91 U13F 1/1 1.1541
80 Nascimento, Flavia  OBC 27:43 32.471 80/91 U50F 5/8 0.9874
Slaunwhite, Patricia  OBC 27:43 32.471 80/91 U50F 5/8  
82 Douglas, Mark  OBC 27:44 32.452 82/91 U60M 17/17 0.9893
83 Jardine, Karen  OBC 27:51 32.316 83/91 U60F 5/6  
Perkins, Cherylin  OBC 27:51 32.316 83/91 U50F 7/8 1.0604
85 Kern, Monika OBC 28:10 31.953 85/91 U50F 8/8  
86 Barrie, David OBC 30:17 29.719 86/91 U50M 18/18  
87 Yelle, Katie OBC 30:25 29.589 87/91 U30F 4/4  
88 Medaglia, Jeremy
(started 6 minutes late due to a bike problem - riding time was 26:22)
--- 32:22 27.806 88/91 U30M 7/7  
89 LeBrun, Robert OBC 36:23 24.737 89/91 U40M 18/19 2.1036
90 Nevitt-Yelle, Susan OBC 37:55 23.736 90/91 U60F 6/6  
91 Mullin, Phil ---  DNF   91/91 U40M 19/19  
 
Average Speed of all of the above 90 finishes (1350km in 36:21:59):37.122
>>>Average of the Average Speeds for these 90 finishes37.704<<<
 

The number of data records shown above is 91
The server processing of your query took: 1 wallclock secs ( 0.09 usr + 0.02 sys = 0.11 CPU)

Thanks to our Helpers: Michel Bernier, Leona Gray, Alex McKnight, Jess Raymond, Stephanie Rees, Peter Tregunno.

     


Apr 6 (Good Friday) Apr 16 (10km) Apr 23 (10km) (Canceled - Cold Drizzle) Apr 30 (10km)
May 1 (10km) May 3 May 7 (10km) May 8 (10km) May 10 May 14 (10km) May 15 May 15 (10km)
  May 17  
May 22 May 22 (10km) May 24 May 28 (10km) May 29 May 29 (10km) May 31
Jun 3 (40km) Jun 4 (10km) Jun 5 Jun 5 Jun 7 Jun 11 (10km) Jun 12 Jun 12 Jun 14 Jun 18 (10km) Jun 19 Jun 19 Jun 21 Jun 25 (10km) Jun 26 Jun 26 Jun 28
Jul 2 (10km) Jul 3 Jul 3 Jul 5 Jul 8 (40km) Jul 9 Jul 10 Jul 10 Jul 12 Jul 16 Jul 17 Jul 17 Jul 19 Jul 22 (40km) Jul 23 (Cancelled - Thunderstorm) Jul 24 Jul 24 Jul 26 Jul 30 Jul 31 Jul 31
Aug 2 Aug 5 (40km) Aug 6 Aug 7 Aug 7 Aug 9 Aug 12 (40km) Aug 13 Aug 14 Aug 14 Aug 16 Aug 20 Aug 21 Aug 21 Aug 23 Aug 28 Aug 28 (Invitational) Aug 30
Sep 2 (40km) Sep 4 Sep 6 Sep 9 (40km) Sep 11 Sep 13 Sep 18 Sep 25

OTT Rankings
3 Best Speeds     3 Best Speeds by category
WTT Rankings for All Participants
4 Best Speeds (≥4 WTT, ≤1 10km)     4 Best Speeds (≥4 WTT, ≤1 10km) by category
OTT Best Three 15km Rankings
Overall     by category     age-Hcap Female   age-Hcap Male
[OWA]TT BAR Ranking
Overall     by category     Rider "Consistency-Graph"
ABC BAR Ranking
Overall     by category     Rider "Consistency-Graph"
Other years
TT Calculator All TT People All TT events
ABC Home VVV Home
CKAP GOLD MEDAL
Other Links

Please send your comments and suggestions to: Celia McInnis
Copyright © 1998-2021 Celia McInnis. All rights reserved. Links are welcomed.